sensor_id;sensor_type;location;lat;lon;timestamp;temperature;humidity
23207;DHT22;11773;52.570;13.052;2022-07-12T00:02:19;18.00;99.90
23207;DHT22;11773;52.570;13.052;2022-07-12T00:04:48;17.90;99.90
23207;DHT22;11773;52.570;13.052;2022-07-12T00:07:19;17.90;99.90
23207;DHT22;11773;52.570;13.052;2022-07-12T00:09:49;17.90;99.90
23207;DHT22;11773;52.570;13.052;2022-07-12T00:12:18;17.90;99.90
23207;DHT22;11773;52.570;13.052;2022-07-12T00:14:48;17.90;99.90
23207;DHT22;11773;52.570;13.052;2022-07-12T00:17:17;17.80;99.90
23207;DHT22;11773;52.570;13.052;2022-07-12T00:19:47;17.80;99.90
23207;DHT22;11773;52.570;13.052;2022-07-12T00:22:16;17.80;99.90
23207;DHT22;11773;52.570;13.052;2022-07-12T00:24:46;17.70;99.90
23207;DHT22;11773;52.570;13.052;2022-07-12T00:27:15;17.70;99.90
23207;DHT22;11773;52.570;13.052;2022-07-12T00:29:45;17.70;99.90
23207;DHT22;11773;52.570;13.052;2022-07-12T00:32:14;17.60;99.90
23207;DHT22;11773;52.570;13.052;2022-07-12T00:34:44;17.60;99.90
23207;DHT22;11773;52.570;13.052;2022-07-12T00:37:13;17.60;99.90
23207;DHT22;11773;52.570;13.052;2022-07-12T00:39:43;17.50;99.90
23207;DHT22;11773;52.570;13.052;2022-07-12T00:42:12;17.50;99.90
23207;DHT22;11773;52.570;13.052;2022-07-12T00:44:42;17.50;99.90
23207;DHT22;11773;52.570;13.052;2022-07-12T00:47:31;17.50;99.90
23207;DHT22;11773;52.570;13.052;2022-07-12T00:50:21;17.40;99.90
23207;DHT22;11773;52.570;13.052;2022-07-12T00:52:53;17.30;99.90
23207;DHT22;11773;52.570;13.052;2022-07-12T00:55:24;17.30;99.90
23207;DHT22;11773;52.570;13.052;2022-07-12T00:57:54;17.30;99.90
23207;DHT22;11773;52.570;13.052;2022-07-12T01:00:26;17.30;99.90
23207;DHT22;11773;52.570;13.052;2022-07-12T01:03:00;17.30;99.90
23207;DHT22;11773;52.570;13.052;2022-07-12T01:05:30;17.30;99.90
23207;DHT22;11773;52.570;13.052;2022-07-12T01:08:01;17.20;99.90
23207;DHT22;11773;52.570;13.052;2022-07-12T01:10:31;17.20;99.90
23207;DHT22;11773;52.570;13.052;2022-07-12T01:13:01;17.10;99.90
23207;DHT22;11773;52.570;13.052;2022-07-12T01:15:31;17.00;99.90
23207;DHT22;11773;52.570;13.052;2022-07-12T01:18:01;17.10;99.90
23207;DHT22;11773;52.570;13.052;2022-07-12T01:20:32;17.00;99.90
23207;DHT22;11773;52.570;13.052;2022-07-12T01:23:03;17.10;99.90
23207;DHT22;11773;52.570;13.052;2022-07-12T01:25:32;17.10;99.90
23207;DHT22;11773;52.570;13.052;2022-07-12T01:28:02;17.00;99.90
23207;DHT22;11773;52.570;13.052;2022-07-12T01:30:32;17.00;99.90
23207;DHT22;11773;52.570;13.052;2022-07-12T01:33:02;16.90;99.90
23207;DHT22;11773;52.570;13.052;2022-07-12T01:35:33;16.90;99.90
23207;DHT22;11773;52.570;13.052;2022-07-12T01:38:03;16.70;99.90
23207;DHT22;11773;52.570;13.052;2022-07-12T01:40:33;16.70;99.90
23207;DHT22;11773;52.570;13.052;2022-07-12T01:43:03;16.70;99.90
23207;DHT22;11773;52.570;13.052;2022-07-12T01:45:33;16.70;99.90
23207;DHT22;11773;52.570;13.052;2022-07-12T01:48:04;16.70;99.90
23207;DHT22;11773;52.570;13.052;2022-07-12T01:50:34;16.60;99.90
23207;DHT22;11773;52.570;13.052;2022-07-12T01:53:05;16.60;99.90
23207;DHT22;11773;52.570;13.052;2022-07-12T01:55:36;16.60;99.90
23207;DHT22;11773;52.570;13.052;2022-07-12T01:58:06;16.50;99.90
23207;DHT22;11773;52.570;13.052;2022-07-12T02:00:36;16.50;99.90
23207;DHT22;11773;52.570;13.052;2022-07-12T02:03:05;16.50;99.90
23207;DHT22;11773;52.570;13.052;2022-07-12T02:05:35;16.50;99.90
23207;DHT22;11773;52.570;13.052;2022-07-12T02:08:05;16.40;99.90
23207;DHT22;11773;52.570;13.052;2022-07-12T02:10:34;16.40;99.90
23207;DHT22;11773;52.570;13.052;2022-07-12T02:13:04;16.40;99.90
23207;DHT22;11773;52.570;13.052;2022-07-12T02:15:34;16.40;99.90
23207;DHT22;11773;52.570;13.052;2022-07-12T02:18:04;16.30;99.90
23207;DHT22;11773;52.570;13.052;2022-07-12T02:20:33;16.30;99.90
23207;DHT22;11773;52.570;13.052;2022-07-12T02:23:03;16.30;99.90
23207;DHT22;11773;52.570;13.052;2022-07-12T02:25:32;16.20;99.90
23207;DHT22;11773;52.570;13.052;2022-07-12T02:28:02;16.30;99.90
23207;DHT22;11773;52.570;13.052;2022-07-12T02:30:31;16.30;99.90
23207;DHT22;11773;52.570;13.052;2022-07-12T02:33:01;16.10;99.90
23207;DHT22;11773;52.570;13.052;2022-07-12T02:35:30;16.10;99.90
23207;DHT22;11773;52.570;13.052;2022-07-12T02:38:00;16.20;99.90
23207;DHT22;11773;52.570;13.052;2022-07-12T02:40:29;16.10;99.90
23207;DHT22;11773;52.570;13.052;2022-07-12T02:43:17;16.10;99.90
23207;DHT22;11773;52.570;13.052;2022-07-12T02:45:46;16.00;99.90
23207;DHT22;11773;52.570;13.052;2022-07-12T02:48:16;16.00;99.90
23207;DHT22;11773;52.570;13.052;2022-07-12T02:50:46;16.00;99.90
23207;DHT22;11773;52.570;13.052;2022-07-12T02:53:16;16.00;99.90
23207;DHT22;11773;52.570;13.052;2022-07-12T02:55:46;15.90;99.90
23207;DHT22;11773;52.570;13.052;2022-07-12T02:58:15;15.90;99.90
23207;DHT22;11773;52.570;13.052;2022-07-12T03:00:45;15.90;99.90
23207;DHT22;11773;52.570;13.052;2022-07-12T03:03:15;15.90;99.90
23207;DHT22;11773;52.570;13.052;2022-07-12T03:05:45;15.80;99.90
23207;DHT22;11773;52.570;13.052;2022-07-12T03:08:15;15.80;99.90
23207;DHT22;11773;52.570;13.052;2022-07-12T03:10:44;15.90;99.90
23207;DHT22;11773;52.570;13.052;2022-07-12T03:13:14;15.90;99.90
23207;DHT22;11773;52.570;13.052;2022-07-12T03:15:43;15.90;99.90
23207;DHT22;11773;52.570;13.052;2022-07-12T03:18:14;16.00;99.90
23207;DHT22;11773;52.570;13.052;2022-07-12T03:20:45;15.90;99.90
23207;DHT22;11773;52.570;13.052;2022-07-12T03:23:16;15.90;99.90
23207;DHT22;11773;52.570;13.052;2022-07-12T03:25:46;15.90;99.90
23207;DHT22;11773;52.570;13.052;2022-07-12T03:28:15;15.80;99.90
23207;DHT22;11773;52.570;13.052;2022-07-12T03:30:45;15.90;99.90
23207;DHT22;11773;52.570;13.052;2022-07-12T03:33:14;15.90;99.90
23207;DHT22;11773;52.570;13.052;2022-07-12T03:35:44;15.80;99.90
23207;DHT22;11773;52.570;13.052;2022-07-12T03:38:13;15.70;99.90
23207;DHT22;11773;52.570;13.052;2022-07-12T03:40:43;15.70;99.90
23207;DHT22;11773;52.570;13.052;2022-07-12T03:43:12;15.70;99.90
23207;DHT22;11773;52.570;13.052;2022-07-12T03:45:42;15.60;99.90
23207;DHT22;11773;52.570;13.052;2022-07-12T03:48:13;15.60;99.90
23207;DHT22;11773;52.570;13.052;2022-07-12T03:50:42;15.60;99.90
23207;DHT22;11773;52.570;13.052;2022-07-12T03:53:13;15.60;99.90
23207;DHT22;11773;52.570;13.052;2022-07-12T03:55:43;15.60;99.90
23207;DHT22;11773;52.570;13.052;2022-07-12T03:58:12;15.60;99.90
23207;DHT22;11773;52.570;13.052;2022-07-12T04:00:42;15.60;99.90
23207;DHT22;11773;52.570;13.052;2022-07-12T04:03:11;15.50;99.90
23207;DHT22;11773;52.570;13.052;2022-07-12T04:05:41;15.50;99.90
23207;DHT22;11773;52.570;13.052;2022-07-12T04:08:10;15.50;99.90
23207;DHT22;11773;52.570;13.052;2022-07-12T04:10:40;15.50;99.90
23207;DHT22;11773;52.570;13.052;2022-07-12T04:13:09;15.40;99.90
23207;DHT22;11773;52.570;13.052;2022-07-12T04:15:39;15.50;99.90
23207;DHT22;11773;52.570;13.052;2022-07-12T04:18:08;15.50;99.90
23207;DHT22;11773;52.570;13.052;2022-07-12T04:20:39;15.60;99.90
23207;DHT22;11773;52.570;13.052;2022-07-12T04:23:09;15.50;99.90
23207;DHT22;11773;52.570;13.052;2022-07-12T04:25:38;15.60;99.90
23207;DHT22;11773;52.570;13.052;2022-07-12T04:28:08;15.60;99.90
23207;DHT22;11773;52.570;13.052;2022-07-12T04:30:37;15.80;99.90
23207;DHT22;11773;52.570;13.052;2022-07-12T04:33:07;15.70;99.90
23207;DHT22;11773;52.570;13.052;2022-07-12T04:35:37;15.70;99.90
23207;DHT22;11773;52.570;13.052;2022-07-12T04:38:07;15.70;99.90
23207;DHT22;11773;52.570;13.052;2022-07-12T04:40:37;15.60;99.90
23207;DHT22;11773;52.570;13.052;2022-07-12T04:43:06;15.60;99.90
23207;DHT22;11773;52.570;13.052;2022-07-12T04:45:36;15.70;99.90
23207;DHT22;11773;52.570;13.052;2022-07-12T04:48:05;15.80;99.90
23207;DHT22;11773;52.570;13.052;2022-07-12T04:50:35;15.70;99.90
23207;DHT22;11773;52.570;13.052;2022-07-12T04:53:05;15.80;99.90
23207;DHT22;11773;52.570;13.052;2022-07-12T04:55:34;15.80;99.90
23207;DHT22;11773;52.570;13.052;2022-07-12T04:58:04;15.80;99.90
23207;DHT22;11773;52.570;13.052;2022-07-12T05:00:33;16.00;99.90
23207;DHT22;11773;52.570;13.052;2022-07-12T05:03:03;16.10;99.90
23207;DHT22;11773;52.570;13.052;2022-07-12T05:05:33;16.00;99.90
23207;DHT22;11773;52.570;13.052;2022-07-12T05:08:02;16.00;99.90
23207;DHT22;11773;52.570;13.052;2022-07-12T05:10:32;16.00;99.90
23207;DHT22;11773;52.570;13.052;2022-07-12T05:13:02;16.00;99.90
23207;DHT22;11773;52.570;13.052;2022-07-12T05:15:32;16.10;99.90
23207;DHT22;11773;52.570;13.052;2022-07-12T05:18:01;16.10;99.90
23207;DHT22;11773;52.570;13.052;2022-07-12T05:20:31;16.50;99.90
23207;DHT22;11773;52.570;13.052;2022-07-12T05:23:01;17.20;99.90
23207;DHT22;11773;52.570;13.052;2022-07-12T05:25:30;17.90;99.90
23207;DHT22;11773;52.570;13.052;2022-07-12T05:28:00;18.50;99.90
23207;DHT22;11773;52.570;13.052;2022-07-12T05:30:29;19.10;99.90
23207;DHT22;11773;52.570;13.052;2022-07-12T05:32:59;19.70;99.90
23207;DHT22;11773;52.570;13.052;2022-07-12T05:35:28;20.10;99.90
23207;DHT22;11773;52.570;13.052;2022-07-12T05:37:58;20.40;99.90
23207;DHT22;11773;52.570;13.052;2022-07-12T05:40:28;20.80;99.90
23207;DHT22;11773;52.570;13.052;2022-07-12T05:42:58;21.20;99.90
23207;DHT22;11773;52.570;13.052;2022-07-12T05:45:27;21.50;99.90
23207;DHT22;11773;52.570;13.052;2022-07-12T05:47:57;21.80;99.90
23207;DHT22;11773;52.570;13.052;2022-07-12T05:50:26;22.10;99.90
23207;DHT22;11773;52.570;13.052;2022-07-12T05:52:56;22.30;99.90
23207;DHT22;11773;52.570;13.052;2022-07-12T05:55:43;22.40;99.90
23207;DHT22;11773;52.570;13.052;2022-07-12T05:58:13;22.70;99.90
23207;DHT22;11773;52.570;13.052;2022-07-12T06:00:42;22.90;99.90
23207;DHT22;11773;52.570;13.052;2022-07-12T06:03:13;23.00;99.90
23207;DHT22;11773;52.570;13.052;2022-07-12T06:05:44;23.20;99.90
23207;DHT22;11773;52.570;13.052;2022-07-12T06:08:13;23.40;99.90
23207;DHT22;11773;52.570;13.052;2022-07-12T06:10:43;23.70;99.90
23207;DHT22;11773;52.570;13.052;2022-07-12T06:13:12;23.80;99.90
23207;DHT22;11773;52.570;13.052;2022-07-12T06:15:42;23.90;99.90
23207;DHT22;11773;52.570;13.052;2022-07-12T06:18:12;24.20;99.90
23207;DHT22;11773;52.570;13.052;2022-07-12T06:20:41;24.30;99.90
23207;DHT22;11773;52.570;13.052;2022-07-12T06:23:11;24.40;99.90
23207;DHT22;11773;52.570;13.052;2022-07-12T06:25:41;24.50;99.90
23207;DHT22;11773;52.570;13.052;2022-07-12T06:28:12;24.60;99.90
23207;DHT22;11773;52.570;13.052;2022-07-12T06:30:41;24.70;99.90
23207;DHT22;11773;52.570;13.052;2022-07-12T06:33:11;24.90;99.90
23207;DHT22;11773;52.570;13.052;2022-07-12T06:35:40;25.00;99.90
23207;DHT22;11773;52.570;13.052;2022-07-12T06:38:10;24.90;99.90
23207;DHT22;11773;52.570;13.052;2022-07-12T06:40:39;25.20;99.90
23207;DHT22;11773;52.570;13.052;2022-07-12T06:43:10;25.40;99.90
23207;DHT22;11773;52.570;13.052;2022-07-12T06:45:41;25.60;99.90
23207;DHT22;11773;52.570;13.052;2022-07-12T06:48:11;25.30;99.90
23207;DHT22;11773;52.570;13.052;2022-07-12T06:50:40;25.60;99.90
23207;DHT22;11773;52.570;13.052;2022-07-12T06:53:12;25.70;99.90
23207;DHT22;11773;52.570;13.052;2022-07-12T06:55:43;26.00;99.90
23207;DHT22;11773;52.570;13.052;2022-07-12T06:58:12;26.00;99.90
23207;DHT22;11773;52.570;13.052;2022-07-12T07:00:42;26.10;99.90
23207;DHT22;11773;52.570;13.052;2022-07-12T07:03:12;26.20;99.90
23207;DHT22;11773;52.570;13.052;2022-07-12T07:05:41;26.40;99.90
23207;DHT22;11773;52.570;13.052;2022-07-12T07:08:12;26.60;99.60
23207;DHT22;11773;52.570;13.052;2022-07-12T07:10:42;26.70;99.90
23207;DHT22;11773;52.570;13.052;2022-07-12T07:13:11;26.90;99.90
23207;DHT22;11773;52.570;13.052;2022-07-12T07:15:41;26.90;99.60
23207;DHT22;11773;52.570;13.052;2022-07-12T07:18:10;27.00;99.20
23207;DHT22;11773;52.570;13.052;2022-07-12T07:20:40;27.10;98.90
23207;DHT22;11773;52.570;13.052;2022-07-12T07:23:09;27.10;98.10
23207;DHT22;11773;52.570;13.052;2022-07-12T07:25:40;27.20;98.90
23207;DHT22;11773;52.570;13.052;2022-07-12T07:28:11;27.30;98.90
23207;DHT22;11773;52.570;13.052;2022-07-12T07:30:41;27.00;97.70
23207;DHT22;11773;52.570;13.052;2022-07-12T07:33:24;27.20;99.00
23207;DHT22;11773;52.570;13.052;2022-07-12T07:35:53;27.40;98.60
23207;DHT22;11773;52.570;13.052;2022-07-12T07:38:23;27.50;98.70
23207;DHT22;11773;52.570;13.052;2022-07-12T07:40:53;27.50;98.90
23207;DHT22;11773;52.570;13.052;2022-07-12T07:43:22;27.60;98.90
23207;DHT22;11773;52.570;13.052;2022-07-12T07:45:53;27.70;98.50
23207;DHT22;11773;52.570;13.052;2022-07-12T07:48:24;27.80;97.90
23207;DHT22;11773;52.570;13.052;2022-07-12T07:50:54;27.80;98.20
23207;DHT22;11773;52.570;13.052;2022-07-12T07:53:24;27.80;97.60
23207;DHT22;11773;52.570;13.052;2022-07-12T07:55:53;27.80;98.10
23207;DHT22;11773;52.570;13.052;2022-07-12T07:58:23;28.00;97.80
23207;DHT22;11773;52.570;13.052;2022-07-12T08:00:53;28.00;97.60
23207;DHT22;11773;52.570;13.052;2022-07-12T08:03:23;28.30;97.70
23207;DHT22;11773;52.570;13.052;2022-07-12T08:05:53;28.40;97.20
23207;DHT22;11773;52.570;13.052;2022-07-12T08:08:24;28.30;97.00
23207;DHT22;11773;52.570;13.052;2022-07-12T08:10:55;28.20;96.00
23207;DHT22;11773;52.570;13.052;2022-07-12T08:13:25;28.50;96.00
23207;DHT22;11773;52.570;13.052;2022-07-12T08:15:55;28.40;96.60
23207;DHT22;11773;52.570;13.052;2022-07-12T08:18:24;28.50;96.10
23207;DHT22;11773;52.570;13.052;2022-07-12T08:20:55;28.30;94.90
23207;DHT22;11773;52.570;13.052;2022-07-12T08:23:25;28.20;95.20
23207;DHT22;11773;52.570;13.052;2022-07-12T08:25:56;28.10;94.70
23207;DHT22;11773;52.570;13.052;2022-07-12T08:28:26;28.30;95.00
23207;DHT22;11773;52.570;13.052;2022-07-12T08:30:55;28.00;93.80
23207;DHT22;11773;52.570;13.052;2022-07-12T08:33:25;28.10;94.20
23207;DHT22;11773;52.570;13.052;2022-07-12T08:35:54;28.30;95.10
23207;DHT22;11773;52.570;13.052;2022-07-12T08:38:24;28.20;95.70
23207;DHT22;11773;52.570;13.052;2022-07-12T08:40:53;28.50;95.00
23207;DHT22;11773;52.570;13.052;2022-07-12T08:43:23;28.30;95.20
23207;DHT22;11773;52.570;13.052;2022-07-12T08:45:54;28.30;95.10
23207;DHT22;11773;52.570;13.052;2022-07-12T08:48:24;28.50;94.70
23207;DHT22;11773;52.570;13.052;2022-07-12T08:51:00;28.70;95.60
23207;DHT22;11773;52.570;13.052;2022-07-12T08:53:32;28.40;95.00
23207;DHT22;11773;52.570;13.052;2022-07-12T08:56:03;28.50;94.10
23207;DHT22;11773;52.570;13.052;2022-07-12T08:58:34;28.00;94.30
23207;DHT22;11773;52.570;13.052;2022-07-12T09:01:03;27.80;94.00
23207;DHT22;11773;52.570;13.052;2022-07-12T09:03:33;27.60;94.10
23207;DHT22;11773;52.570;13.052;2022-07-12T09:06:05;27.70;94.70
23207;DHT22;11773;52.570;13.052;2022-07-12T09:08:38;27.80;95.00
23207;DHT22;11773;52.570;13.052;2022-07-12T09:11:08;28.10;95.20
23207;DHT22;11773;52.570;13.052;2022-07-12T09:13:54;27.00;94.30
23207;DHT22;11773;52.570;13.052;2022-07-12T09:16:26;27.00;95.00
23207;DHT22;11773;52.570;13.052;2022-07-12T09:19:15;27.50;94.70
23207;DHT22;11773;52.570;13.052;2022-07-12T09:21:49;27.30;94.40
23207;DHT22;11773;52.570;13.052;2022-07-12T09:24:23;27.40;95.00
23207;DHT22;11773;52.570;13.052;2022-07-12T09:27:07;27.80;95.60
23207;DHT22;11773;52.570;13.052;2022-07-12T09:29:57;28.00;95.40
23207;DHT22;11773;52.570;13.052;2022-07-12T09:32:15;28.00;95.00
23207;DHT22;11773;52.570;13.052;2022-07-12T09:35:03;27.80;94.50
23207;DHT22;11773;52.570;13.052;2022-07-12T09:37:50;27.90;94.50
23207;DHT22;11773;52.570;13.052;2022-07-12T09:40:21;27.40;95.20
23207;DHT22;11773;52.570;13.052;2022-07-12T09:42:51;27.90;95.50
23207;DHT22;11773;52.570;13.052;2022-07-12T09:45:21;27.80;95.00
23207;DHT22;11773;52.570;13.052;2022-07-12T09:47:51;28.10;94.50
23207;DHT22;11773;52.570;13.052;2022-07-12T09:50:22;28.10;95.10
23207;DHT22;11773;52.570;13.052;2022-07-12T09:52:53;28.20;95.20
23207;DHT22;11773;52.570;13.052;2022-07-12T09:55:25;28.10;94.70
23207;DHT22;11773;52.570;13.052;2022-07-12T09:58:00;28.00;94.70
23207;DHT22;11773;52.570;13.052;2022-07-12T10:00:31;27.90;94.50
23207;DHT22;11773;52.570;13.052;2022-07-12T10:03:03;27.90;94.90
23207;DHT22;11773;52.570;13.052;2022-07-12T10:05:36;28.20;95.30
23207;DHT22;11773;52.570;13.052;2022-07-12T10:08:09;28.30;95.40
23207;DHT22;11773;52.570;13.052;2022-07-12T10:10:39;28.10;94.10
23207;DHT22;11773;52.570;13.052;2022-07-12T10:13:09;28.30;95.00
23207;DHT22;11773;52.570;13.052;2022-07-12T10:15:40;28.20;94.00
23207;DHT22;11773;52.570;13.052;2022-07-12T10:18:19;28.20;94.00
23207;DHT22;11773;52.570;13.052;2022-07-12T10:20:50;28.20;93.60
23207;DHT22;11773;52.570;13.052;2022-07-12T10:23:28;28.50;93.70
23207;DHT22;11773;52.570;13.052;2022-07-12T10:29:01;28.40;94.00
23207;DHT22;11773;52.570;13.052;2022-07-12T10:31:36;28.80;93.70
23207;DHT22;11773;52.570;13.052;2022-07-12T10:34:13;28.50;93.10
23207;DHT22;11773;52.570;13.052;2022-07-12T10:39:32;28.60;94.10
23207;DHT22;11773;52.570;13.052;2022-07-12T10:44:47;28.50;92.80
23207;DHT22;11773;52.570;13.052;2022-07-12T10:47:16;28.30;93.20
23207;DHT22;11773;52.570;13.052;2022-07-12T10:49:51;28.20;92.40
23207;DHT22;11773;52.570;13.052;2022-07-12T10:52:25;28.60;93.90
23207;DHT22;11773;52.570;13.052;2022-07-12T10:57:46;28.40;91.30
23207;DHT22;11773;52.570;13.052;2022-07-12T11:00:19;28.20;91.80
23207;DHT22;11773;52.570;13.052;2022-07-12T11:02:50;28.20;93.30
23207;DHT22;11773;52.570;13.052;2022-07-12T11:05:26;28.40;92.60
23207;DHT22;11773;52.570;13.052;2022-07-12T11:07:56;28.50;90.50
23207;DHT22;11773;52.570;13.052;2022-07-12T11:10:25;28.10;91.10
23207;DHT22;11773;52.570;13.052;2022-07-12T11:12:55;28.00;91.50
23207;DHT22;11773;52.570;13.052;2022-07-12T11:15:24;28.00;92.10
23207;DHT22;11773;52.570;13.052;2022-07-12T11:17:54;28.40;92.10
23207;DHT22;11773;52.570;13.052;2022-07-12T11:20:27;28.70;93.00
23207;DHT22;11773;52.570;13.052;2022-07-12T11:22:57;28.80;92.00
23207;DHT22;11773;52.570;13.052;2022-07-12T11:25:27;28.80;90.70
23207;DHT22;11773;52.570;13.052;2022-07-12T11:27:57;28.90;92.40
23207;DHT22;11773;52.570;13.052;2022-07-12T11:30:27;29.10;92.00
23207;DHT22;11773;52.570;13.052;2022-07-12T11:32:57;29.20;92.80
23207;DHT22;11773;52.570;13.052;2022-07-12T11:35:28;29.20;92.90
23207;DHT22;11773;52.570;13.052;2022-07-12T11:37:58;29.00;93.70
23207;DHT22;11773;52.570;13.052;2022-07-12T11:40:29;28.90;93.10
23207;DHT22;11773;52.570;13.052;2022-07-12T11:43:00;28.90;92.70
23207;DHT22;11773;52.570;13.052;2022-07-12T11:45:33;28.90;92.80
23207;DHT22;11773;52.570;13.052;2022-07-12T11:48:03;28.80;93.20
23207;DHT22;11773;52.570;13.052;2022-07-12T11:50:33;28.50;93.90
23207;DHT22;11773;52.570;13.052;2022-07-12T11:53:03;28.40;92.90
23207;DHT22;11773;52.570;13.052;2022-07-12T11:55:41;28.30;93.10
23207;DHT22;11773;52.570;13.052;2022-07-12T11:58:13;28.10;92.40
23207;DHT22;11773;52.570;13.052;2022-07-12T12:00:44;28.40;93.70
23207;DHT22;11773;52.570;13.052;2022-07-12T12:03:16;28.60;93.10
23207;DHT22;11773;52.570;13.052;2022-07-12T12:05:48;28.30;94.00
23207;DHT22;11773;52.570;13.052;2022-07-12T12:08:20;28.40;93.90
23207;DHT22;11773;52.570;13.052;2022-07-12T12:10:56;28.30;94.10
23207;DHT22;11773;52.570;13.052;2022-07-12T12:13:28;28.20;93.80
23207;DHT22;11773;52.570;13.052;2022-07-12T12:16:01;28.40;93.70
23207;DHT22;11773;52.570;13.052;2022-07-12T12:18:33;28.60;93.10
23207;DHT22;11773;52.570;13.052;2022-07-12T12:21:09;28.60;93.90
23207;DHT22;11773;52.570;13.052;2022-07-12T12:23:41;28.80;93.50
23207;DHT22;11773;52.570;13.052;2022-07-12T12:26:20;28.50;93.40
23207;DHT22;11773;52.570;13.052;2022-07-12T12:28:50;28.50;93.70
23207;DHT22;11773;52.570;13.052;2022-07-12T12:31:22;28.50;92.90
23207;DHT22;11773;52.570;13.052;2022-07-12T12:33:54;28.80;93.60
23207;DHT22;11773;52.570;13.052;2022-07-12T12:36:28;28.70;93.50
23207;DHT22;11773;52.570;13.052;2022-07-12T12:39:00;28.80;93.30
23207;DHT22;11773;52.570;13.052;2022-07-12T12:41:39;29.10;93.70
23207;DHT22;11773;52.570;13.052;2022-07-12T12:44:11;29.00;93.00
23207;DHT22;11773;52.570;13.052;2022-07-12T12:46:50;29.20;93.30
23207;DHT22;11773;52.570;13.052;2022-07-12T12:49:46;29.20;93.20
23207;DHT22;11773;52.570;13.052;2022-07-12T12:52:19;29.00;93.10
23207;DHT22;11773;52.570;13.052;2022-07-12T12:54:49;28.90;92.90
23207;DHT22;11773;52.570;13.052;2022-07-12T12:57:19;29.20;92.80
23207;DHT22;11773;52.570;13.052;2022-07-12T12:59:49;29.10;93.00
23207;DHT22;11773;52.570;13.052;2022-07-12T13:02:18;29.00;93.20
23207;DHT22;11773;52.570;13.052;2022-07-12T13:04:50;29.00;93.70
23207;DHT22;11773;52.570;13.052;2022-07-12T13:07:20;28.70;92.40
23207;DHT22;11773;52.570;13.052;2022-07-12T13:09:49;29.20;92.80
23207;DHT22;11773;52.570;13.052;2022-07-12T13:12:19;29.30;92.10
23207;DHT22;11773;52.570;13.052;2022-07-12T13:14:50;28.90;92.70
23207;DHT22;11773;52.570;13.052;2022-07-12T13:17:20;28.50;92.70
23207;DHT22;11773;52.570;13.052;2022-07-12T13:19:49;28.30;92.30
23207;DHT22;11773;52.570;13.052;2022-07-12T13:22:21;28.70;92.80
23207;DHT22;11773;52.570;13.052;2022-07-12T13:24:50;28.90;92.90
23207;DHT22;11773;52.570;13.052;2022-07-12T13:27:20;29.00;92.30
23207;DHT22;11773;52.570;13.052;2022-07-12T13:29:49;29.20;92.50
23207;DHT22;11773;52.570;13.052;2022-07-12T13:32:19;29.40;92.70
23207;DHT22;11773;52.570;13.052;2022-07-12T13:34:49;28.80;92.40
23207;DHT22;11773;52.570;13.052;2022-07-12T13:37:19;29.20;92.00
23207;DHT22;11773;52.570;13.052;2022-07-12T13:39:48;29.10;92.20
23207;DHT22;11773;52.570;13.052;2022-07-12T13:42:36;29.10;92.10
23207;DHT22;11773;52.570;13.052;2022-07-12T13:45:21;29.20;92.50
23207;DHT22;11773;52.570;13.052;2022-07-12T13:47:52;29.20;92.50
23207;DHT22;11773;52.570;13.052;2022-07-12T13:50:22;29.30;91.60
23207;DHT22;11773;52.570;13.052;2022-07-12T13:52:53;28.80;92.40
23207;DHT22;11773;52.570;13.052;2022-07-12T13:55:23;28.90;91.70
23207;DHT22;11773;52.570;13.052;2022-07-12T13:57:53;28.80;92.20
23207;DHT22;11773;52.570;13.052;2022-07-12T14:00:23;28.90;91.90
23207;DHT22;11773;52.570;13.052;2022-07-12T14:02:52;29.00;92.00
23207;DHT22;11773;52.570;13.052;2022-07-12T14:05:22;29.20;92.20
23207;DHT22;11773;52.570;13.052;2022-07-12T14:07:52;28.90;91.90
23207;DHT22;11773;52.570;13.052;2022-07-12T14:10:21;29.00;92.80
23207;DHT22;11773;52.570;13.052;2022-07-12T14:12:51;28.90;93.70
23207;DHT22;11773;52.570;13.052;2022-07-12T14:15:21;29.10;92.50
23207;DHT22;11773;52.570;13.052;2022-07-12T14:18:07;29.00;91.90
23207;DHT22;11773;52.570;13.052;2022-07-12T14:20:36;28.80;91.90
23207;DHT22;11773;52.570;13.052;2022-07-12T14:23:06;28.70;92.80
23207;DHT22;11773;52.570;13.052;2022-07-12T14:25:37;28.60;92.50
23207;DHT22;11773;52.570;13.052;2022-07-12T14:28:07;28.50;91.50
23207;DHT22;11773;52.570;13.052;2022-07-12T14:30:36;28.50;93.00
23207;DHT22;11773;52.570;13.052;2022-07-12T14:33:06;28.90;92.80
23207;DHT22;11773;52.570;13.052;2022-07-12T14:35:35;28.50;92.40
23207;DHT22;11773;52.570;13.052;2022-07-12T14:38:05;28.80;92.50
23207;DHT22;11773;52.570;13.052;2022-07-12T14:40:34;28.80;92.40
23207;DHT22;11773;52.570;13.052;2022-07-12T14:43:04;28.70;91.70
23207;DHT22;11773;52.570;13.052;2022-07-12T14:45:33;28.80;92.30
23207;DHT22;11773;52.570;13.052;2022-07-12T14:48:03;28.60;92.20
23207;DHT22;11773;52.570;13.052;2022-07-12T14:50:33;28.70;93.10
23207;DHT22;11773;52.570;13.052;2022-07-12T14:53:02;28.80;92.70
23207;DHT22;11773;52.570;13.052;2022-07-12T14:55:32;28.80;92.90
23207;DHT22;11773;52.570;13.052;2022-07-12T14:58:02;29.00;92.90
23207;DHT22;11773;52.570;13.052;2022-07-12T15:00:31;28.90;92.10
23207;DHT22;11773;52.570;13.052;2022-07-12T15:03:01;29.10;92.80
23207;DHT22;11773;52.570;13.052;2022-07-12T15:05:32;29.20;92.20
23207;DHT22;11773;52.570;13.052;2022-07-12T15:08:01;28.70;92.30
23207;DHT22;11773;52.570;13.052;2022-07-12T15:10:31;28.50;93.60
23207;DHT22;11773;52.570;13.052;2022-07-12T15:13:00;28.50;90.90
23207;DHT22;11773;52.570;13.052;2022-07-12T15:15:30;28.50;90.90
23207;DHT22;11773;52.570;13.052;2022-07-12T15:18:01;28.70;93.40
23207;DHT22;11773;52.570;13.052;2022-07-12T15:20:30;28.80;92.40
23207;DHT22;11773;52.570;13.052;2022-07-12T15:23:01;28.90;92.40
23207;DHT22;11773;52.570;13.052;2022-07-12T15:25:30;29.00;92.00
23207;DHT22;11773;52.570;13.052;2022-07-12T15:28:00;29.00;92.10
23207;DHT22;11773;52.570;13.052;2022-07-12T15:30:30;28.70;92.00
23207;DHT22;11773;52.570;13.052;2022-07-12T15:32:59;28.70;91.80
23207;DHT22;11773;52.570;13.052;2022-07-12T15:35:29;28.80;93.20
23207;DHT22;11773;52.570;13.052;2022-07-12T15:37:58;28.70;92.00
23207;DHT22;11773;52.570;13.052;2022-07-12T15:40:28;28.60;92.70
23207;DHT22;11773;52.570;13.052;2022-07-12T15:42:57;28.80;93.40
23207;DHT22;11773;52.570;13.052;2022-07-12T15:45:27;28.70;92.10
23207;DHT22;11773;52.570;13.052;2022-07-12T15:47:57;28.70;92.40
23207;DHT22;11773;52.570;13.052;2022-07-12T15:50:26;28.70;92.70